sensor_id;sensor_type;location;lat;lon;timestamp;P1;durP1;ratioP1;P2;durP2;ratioP2
7181;SDS011;3632;42.724;23.298;2023-04-03T00:00:37;14.23;;;7.43;;
7181;SDS011;3632;42.724;23.298;2023-04-03T00:03:04;11.97;;;7.27;;
7181;SDS011;3632;42.724;23.298;2023-04-03T00:05:31;14.00;;;7.40;;
7181;SDS011;3632;42.724;23.298;2023-04-03T00:07:58;12.43;;;7.23;;
7181;SDS011;3632;42.724;23.298;2023-04-03T00:10:26;14.37;;;7.70;;
7181;SDS011;3632;42.724;23.298;2023-04-03T00:12:54;14.80;;;7.77;;
7181;SDS011;3632;42.724;23.298;2023-04-03T00:15:20;13.70;;;7.00;;
7181;SDS011;3632;42.724;23.298;2023-04-03T00:17:48;10.67;;;7.03;;
7181;SDS011;3632;42.724;23.298;2023-04-03T00:20:15;10.60;;;6.53;;
7181;SDS011;3632;42.724;23.298;2023-04-03T00:22:42;11.57;;;7.27;;
7181;SDS011;3632;42.724;23.298;2023-04-03T00:25:09;14.40;;;7.50;;
7181;SDS011;3632;42.724;23.298;2023-04-03T00:27:36;12.50;;;6.67;;
7181;SDS011;3632;42.724;23.298;2023-04-03T00:30:04;11.37;;;6.60;;
7181;SDS011;3632;42.724;23.298;2023-04-03T00:32:33;10.97;;;6.30;;
7181;SDS011;3632;42.724;23.298;2023-04-03T00:35:01;12.90;;;7.37;;
7181;SDS011;3632;42.724;23.298;2023-04-03T00:37:29;13.07;;;6.70;;
7181;SDS011;3632;42.724;23.298;2023-04-03T00:39:55;10.93;;;6.40;;
7181;SDS011;3632;42.724;23.298;2023-04-03T00:42:22;12.27;;;7.30;;
7181;SDS011;3632;42.724;23.298;2023-04-03T00:47:50;13.27;;;7.33;;
7181;SDS011;3632;42.724;23.298;2023-04-03T00:50:18;11.67;;;7.03;;
7181;SDS011;3632;42.724;23.298;2023-04-03T00:52:46;15.17;;;8.00;;
7181;SDS011;3632;42.724;23.298;2023-04-03T00:55:14;13.60;;;8.50;;
7181;SDS011;3632;42.724;23.298;2023-04-03T00:57:42;12.23;;;7.77;;
7181;SDS011;3632;42.724;23.298;2023-04-03T01:00:11;10.77;;;7.33;;
7181;SDS011;3632;42.724;23.298;2023-04-03T01:02:40;11.03;;;7.77;;
7181;SDS011;3632;42.724;23.298;2023-04-03T01:05:07;10.90;;;8.03;;
7181;SDS011;3632;42.724;23.298;2023-04-03T01:07:36;11.57;;;7.63;;
7181;SDS011;3632;42.724;23.298;2023-04-03T01:10:04;13.03;;;7.03;;
7181;SDS011;3632;42.724;23.298;2023-04-03T01:12:33;8.23;;;5.37;;
7181;SDS011;3632;42.724;23.298;2023-04-03T01:15:03;7.30;;;5.10;;
7181;SDS011;3632;42.724;23.298;2023-04-03T01:17:31;7.53;;;5.40;;
7181;SDS011;3632;42.724;23.298;2023-04-03T01:23:25;8.57;;;5.07;;
7181;SDS011;3632;42.724;23.298;2023-04-03T01:26:00;6.63;;;4.60;;
7181;SDS011;3632;42.724;23.298;2023-04-03T01:28:27;7.93;;;5.23;;
7181;SDS011;3632;42.724;23.298;2023-04-03T01:30:58;7.43;;;5.40;;
7181;SDS011;3632;42.724;23.298;2023-04-03T01:33:31;6.53;;;5.00;;
7181;SDS011;3632;42.724;23.298;2023-04-03T01:35:58;7.60;;;5.73;;
7181;SDS011;3632;42.724;23.298;2023-04-03T01:38:25;8.13;;;5.43;;
7181;SDS011;3632;42.724;23.298;2023-04-03T01:40:51;8.43;;;5.67;;
7181;SDS011;3632;42.724;23.298;2023-04-03T01:43:18;7.20;;;4.80;;
7181;SDS011;3632;42.724;23.298;2023-04-03T01:45:45;8.27;;;4.53;;
7181;SDS011;3632;42.724;23.298;2023-04-03T01:48:14;7.20;;;4.70;;
7181;SDS011;3632;42.724;23.298;2023-04-03T01:50:42;5.23;;;4.07;;
7181;SDS011;3632;42.724;23.298;2023-04-03T01:53:09;4.87;;;3.27;;
7181;SDS011;3632;42.724;23.298;2023-04-03T01:55:36;4.83;;;3.37;;
7181;SDS011;3632;42.724;23.298;2023-04-03T01:58:03;4.67;;;3.57;;
7181;SDS011;3632;42.724;23.298;2023-04-03T02:00:30;9.03;;;5.53;;
7181;SDS011;3632;42.724;23.298;2023-04-03T02:02:57;7.70;;;5.83;;
7181;SDS011;3632;42.724;23.298;2023-04-03T02:05:23;8.73;;;5.03;;
7181;SDS011;3632;42.724;23.298;2023-04-03T02:07:51;6.53;;;5.03;;
7181;SDS011;3632;42.724;23.298;2023-04-03T02:10:18;12.43;;;5.80;;
7181;SDS011;3632;42.724;23.298;2023-04-03T02:12:45;10.00;;;6.13;;
7181;SDS011;3632;42.724;23.298;2023-04-03T02:15:12;12.93;;;7.03;;
7181;SDS011;3632;42.724;23.298;2023-04-03T02:17:38;10.37;;;6.43;;
7181;SDS011;3632;42.724;23.298;2023-04-03T02:20:06;8.87;;;6.10;;
7181;SDS011;3632;42.724;23.298;2023-04-03T02:22:33;9.60;;;5.90;;
7181;SDS011;3632;42.724;23.298;2023-04-03T02:25:01;10.67;;;5.80;;
7181;SDS011;3632;42.724;23.298;2023-04-03T02:27:29;9.47;;;5.83;;
7181;SDS011;3632;42.724;23.298;2023-04-03T02:29:56;9.40;;;6.80;;
7181;SDS011;3632;42.724;23.298;2023-04-03T02:32:23;16.73;;;8.90;;
7181;SDS011;3632;42.724;23.298;2023-04-03T02:34:50;9.43;;;6.30;;
7181;SDS011;3632;42.724;23.298;2023-04-03T02:37:17;11.30;;;6.73;;
7181;SDS011;3632;42.724;23.298;2023-04-03T02:39:43;7.57;;;5.23;;
7181;SDS011;3632;42.724;23.298;2023-04-03T02:42:11;7.33;;;5.30;;
7181;SDS011;3632;42.724;23.298;2023-04-03T02:44:38;5.43;;;4.13;;
7181;SDS011;3632;42.724;23.298;2023-04-03T02:47:05;7.27;;;4.50;;
7181;SDS011;3632;42.724;23.298;2023-04-03T02:49:32;6.83;;;4.57;;
7181;SDS011;3632;42.724;23.298;2023-04-03T02:51:58;8.10;;;4.40;;
7181;SDS011;3632;42.724;23.298;2023-04-03T02:54:25;11.87;;;7.87;;
7181;SDS011;3632;42.724;23.298;2023-04-03T02:56:55;11.13;;;5.43;;
7181;SDS011;3632;42.724;23.298;2023-04-03T02:59:24;10.30;;;5.03;;
7181;SDS011;3632;42.724;23.298;2023-04-03T03:01:51;11.63;;;5.57;;
7181;SDS011;3632;42.724;23.298;2023-04-03T03:04:17;12.50;;;5.53;;
7181;SDS011;3632;42.724;23.298;2023-04-03T03:06:44;7.43;;;4.73;;
7181;SDS011;3632;42.724;23.298;2023-04-03T03:09:12;8.97;;;4.93;;
7181;SDS011;3632;42.724;23.298;2023-04-03T03:11:39;13.10;;;5.67;;
7181;SDS011;3632;42.724;23.298;2023-04-03T03:14:05;10.70;;;5.67;;
7181;SDS011;3632;42.724;23.298;2023-04-03T03:16:34;10.67;;;5.77;;
7181;SDS011;3632;42.724;23.298;2023-04-03T03:19:00;13.70;;;5.60;;
7181;SDS011;3632;42.724;23.298;2023-04-03T03:21:27;12.00;;;5.83;;
7181;SDS011;3632;42.724;23.298;2023-04-03T03:23:54;12.43;;;5.80;;
7181;SDS011;3632;42.724;23.298;2023-04-03T03:26:21;11.30;;;6.00;;
7181;SDS011;3632;42.724;23.298;2023-04-03T03:28:47;11.00;;;5.10;;
7181;SDS011;3632;42.724;23.298;2023-04-03T03:31:14;9.67;;;5.23;;
7181;SDS011;3632;42.724;23.298;2023-04-03T03:33:42;11.83;;;5.30;;
7181;SDS011;3632;42.724;23.298;2023-04-03T03:36:09;8.40;;;5.10;;
7181;SDS011;3632;42.724;23.298;2023-04-03T03:38:36;8.57;;;5.23;;
7181;SDS011;3632;42.724;23.298;2023-04-03T03:41:03;8.80;;;5.53;;
7181;SDS011;3632;42.724;23.298;2023-04-03T03:43:30;10.90;;;5.63;;
7181;SDS011;3632;42.724;23.298;2023-04-03T03:45:57;11.50;;;5.70;;
7181;SDS011;3632;42.724;23.298;2023-04-03T03:48:23;14.17;;;8.10;;
7181;SDS011;3632;42.724;23.298;2023-04-03T03:50:52;19.73;;;8.37;;
7181;SDS011;3632;42.724;23.298;2023-04-03T03:53:18;17.00;;;7.50;;
7181;SDS011;3632;42.724;23.298;2023-04-03T03:55:45;11.27;;;6.13;;
7181;SDS011;3632;42.724;23.298;2023-04-03T03:58:12;12.43;;;6.70;;
7181;SDS011;3632;42.724;23.298;2023-04-03T04:00:38;13.23;;;6.83;;
7181;SDS011;3632;42.724;23.298;2023-04-03T04:03:05;17.10;;;7.50;;
7181;SDS011;3632;42.724;23.298;2023-04-03T04:05:32;15.73;;;7.70;;
7181;SDS011;3632;42.724;23.298;2023-04-03T04:08:00;15.03;;;7.33;;
7181;SDS011;3632;42.724;23.298;2023-04-03T04:10:27;23.50;;;7.50;;
7181;SDS011;3632;42.724;23.298;2023-04-03T04:12:53;18.30;;;9.20;;
7181;SDS011;3632;42.724;23.298;2023-04-03T04:15:20;16.30;;;8.13;;
7181;SDS011;3632;42.724;23.298;2023-04-03T04:17:48;20.33;;;7.80;;
7181;SDS011;3632;42.724;23.298;2023-04-03T04:20:15;20.47;;;9.43;;
7181;SDS011;3632;42.724;23.298;2023-04-03T04:22:41;19.70;;;9.27;;
7181;SDS011;3632;42.724;23.298;2023-04-03T04:25:10;18.97;;;9.20;;
7181;SDS011;3632;42.724;23.298;2023-04-03T04:27:36;15.47;;;9.30;;
7181;SDS011;3632;42.724;23.298;2023-04-03T04:30:04;24.00;;;11.53;;
7181;SDS011;3632;42.724;23.298;2023-04-03T04:32:32;22.83;;;11.43;;
7181;SDS011;3632;42.724;23.298;2023-04-03T04:34:59;20.00;;;10.73;;
7181;SDS011;3632;42.724;23.298;2023-04-03T04:37:26;29.10;;;13.63;;
7181;SDS011;3632;42.724;23.298;2023-04-03T04:39:53;37.97;;;18.47;;
7181;SDS011;3632;42.724;23.298;2023-04-03T04:42:21;37.03;;;19.73;;
7181;SDS011;3632;42.724;23.298;2023-04-03T04:44:48;39.97;;;18.77;;
7181;SDS011;3632;42.724;23.298;2023-04-03T04:47:15;53.67;;;23.37;;
7181;SDS011;3632;42.724;23.298;2023-04-03T04:49:41;36.10;;;22.47;;
7181;SDS011;3632;42.724;23.298;2023-04-03T04:52:08;31.57;;;17.50;;
7181;SDS011;3632;42.724;23.298;2023-04-03T04:54:35;21.20;;;13.23;;
7181;SDS011;3632;42.724;23.298;2023-04-03T04:57:02;21.40;;;12.60;;
7181;SDS011;3632;42.724;23.298;2023-04-03T04:59:30;25.43;;;15.37;;
7181;SDS011;3632;42.724;23.298;2023-04-03T05:01:56;28.17;;;12.73;;
7181;SDS011;3632;42.724;23.298;2023-04-03T05:04:23;24.40;;;11.07;;
7181;SDS011;3632;42.724;23.298;2023-04-03T05:06:50;18.37;;;10.93;;
7181;SDS011;3632;42.724;23.298;2023-04-03T05:09:17;26.87;;;12.20;;
7181;SDS011;3632;42.724;23.298;2023-04-03T05:11:45;26.63;;;13.27;;
7181;SDS011;3632;42.724;23.298;2023-04-03T05:14:12;21.33;;;12.17;;
7181;SDS011;3632;42.724;23.298;2023-04-03T05:16:40;22.63;;;12.27;;
7181;SDS011;3632;42.724;23.298;2023-04-03T05:19:06;22.00;;;12.13;;
7181;SDS011;3632;42.724;23.298;2023-04-03T05:21:33;22.70;;;12.57;;
7181;SDS011;3632;42.724;23.298;2023-04-03T05:24:00;20.10;;;11.30;;
7181;SDS011;3632;42.724;23.298;2023-04-03T05:26:27;18.20;;;10.53;;
7181;SDS011;3632;42.724;23.298;2023-04-03T05:28:55;17.70;;;10.47;;
7181;SDS011;3632;42.724;23.298;2023-04-03T05:31:21;23.30;;;11.67;;
7181;SDS011;3632;42.724;23.298;2023-04-03T05:33:50;27.53;;;12.73;;
7181;SDS011;3632;42.724;23.298;2023-04-03T05:36:17;20.37;;;11.63;;
7181;SDS011;3632;42.724;23.298;2023-04-03T05:38:44;22.00;;;12.23;;
7181;SDS011;3632;42.724;23.298;2023-04-03T05:41:11;31.27;;;13.23;;
7181;SDS011;3632;42.724;23.298;2023-04-03T05:43:37;22.07;;;12.27;;
7181;SDS011;3632;42.724;23.298;2023-04-03T05:46:08;20.97;;;11.73;;
7181;SDS011;3632;42.724;23.298;2023-04-03T05:48:37;17.20;;;10.97;;
7181;SDS011;3632;42.724;23.298;2023-04-03T05:51:05;20.40;;;10.43;;
7181;SDS011;3632;42.724;23.298;2023-04-03T05:53:34;20.57;;;10.93;;
7181;SDS011;3632;42.724;23.298;2023-04-03T05:56:03;18.43;;;10.90;;
7181;SDS011;3632;42.724;23.298;2023-04-03T05:58:30;18.60;;;10.30;;
7181;SDS011;3632;42.724;23.298;2023-04-03T06:00:56;19.13;;;9.33;;
7181;SDS011;3632;42.724;23.298;2023-04-03T06:03:23;16.63;;;8.80;;
7181;SDS011;3632;42.724;23.298;2023-04-03T06:05:51;16.83;;;8.37;;
7181;SDS011;3632;42.724;23.298;2023-04-03T06:08:19;18.87;;;8.70;;
7181;SDS011;3632;42.724;23.298;2023-04-03T06:10:46;13.97;;;6.50;;
7181;SDS011;3632;42.724;23.298;2023-04-03T06:13:13;9.63;;;6.23;;
7181;SDS011;3632;42.724;23.298;2023-04-03T06:15:40;13.20;;;6.00;;
7181;SDS011;3632;42.724;23.298;2023-04-03T06:18:06;10.20;;;5.30;;
7181;SDS011;3632;42.724;23.298;2023-04-03T06:20:33;9.13;;;4.80;;
7181;SDS011;3632;42.724;23.298;2023-04-03T06:23:00;8.47;;;4.60;;
7181;SDS011;3632;42.724;23.298;2023-04-03T06:25:28;6.30;;;4.63;;
7181;SDS011;3632;42.724;23.298;2023-04-03T06:27:56;7.27;;;4.47;;
7181;SDS011;3632;42.724;23.298;2023-04-03T06:30:23;9.67;;;5.13;;
7181;SDS011;3632;42.724;23.298;2023-04-03T06:32:50;12.03;;;6.23;;
7181;SDS011;3632;42.724;23.298;2023-04-03T06:35:17;12.27;;;6.77;;
7181;SDS011;3632;42.724;23.298;2023-04-03T06:37:44;13.37;;;7.67;;
7181;SDS011;3632;42.724;23.298;2023-04-03T06:40:12;19.30;;;8.53;;
7181;SDS011;3632;42.724;23.298;2023-04-03T06:42:46;14.90;;;7.40;;
7181;SDS011;3632;42.724;23.298;2023-04-03T06:45:12;12.13;;;6.70;;
7181;SDS011;3632;42.724;23.298;2023-04-03T06:47:40;13.03;;;6.93;;
7181;SDS011;3632;42.724;23.298;2023-04-03T06:50:07;7.97;;;5.70;;
7181;SDS011;3632;42.724;23.298;2023-04-03T06:52:36;11.90;;;7.63;;
7181;SDS011;3632;42.724;23.298;2023-04-03T06:55:05;15.17;;;9.00;;
7181;SDS011;3632;42.724;23.298;2023-04-03T06:57:32;11.07;;;8.60;;
7181;SDS011;3632;42.724;23.298;2023-04-03T07:00:00;15.80;;;9.23;;
7181;SDS011;3632;42.724;23.298;2023-04-03T07:02:28;12.17;;;8.83;;
7181;SDS011;3632;42.724;23.298;2023-04-03T07:04:55;18.40;;;9.40;;
7181;SDS011;3632;42.724;23.298;2023-04-03T07:07:22;15.43;;;9.10;;
7181;SDS011;3632;42.724;23.298;2023-04-03T07:09:49;13.03;;;8.10;;
7181;SDS011;3632;42.724;23.298;2023-04-03T07:12:16;13.33;;;9.03;;
7181;SDS011;3632;42.724;23.298;2023-04-03T07:14:43;13.00;;;8.63;;
7181;SDS011;3632;42.724;23.298;2023-04-03T07:17:11;14.60;;;8.57;;
7181;SDS011;3632;42.724;23.298;2023-04-03T07:19:38;14.53;;;8.70;;
7181;SDS011;3632;42.724;23.298;2023-04-03T07:22:04;14.07;;;8.17;;
7181;SDS011;3632;42.724;23.298;2023-04-03T07:24:31;12.53;;;8.30;;
7181;SDS011;3632;42.724;23.298;2023-04-03T07:26:58;13.87;;;8.80;;
7181;SDS011;3632;42.724;23.298;2023-04-03T07:29:25;17.17;;;9.23;;
7181;SDS011;3632;42.724;23.298;2023-04-03T07:31:52;24.10;;;13.10;;
7181;SDS011;3632;42.724;23.298;2023-04-03T07:34:21;18.60;;;9.50;;
7181;SDS011;3632;42.724;23.298;2023-04-03T07:36:48;18.40;;;9.47;;
7181;SDS011;3632;42.724;23.298;2023-04-03T07:39:15;19.20;;;10.67;;
7181;SDS011;3632;42.724;23.298;2023-04-03T07:41:42;14.17;;;10.23;;
7181;SDS011;3632;42.724;23.298;2023-04-03T07:44:09;17.07;;;11.77;;
7181;SDS011;3632;42.724;23.298;2023-04-03T07:46:36;18.10;;;10.73;;
7181;SDS011;3632;42.724;23.298;2023-04-03T07:49:03;18.20;;;11.03;;
7181;SDS011;3632;42.724;23.298;2023-04-03T07:51:31;17.90;;;10.97;;
7181;SDS011;3632;42.724;23.298;2023-04-03T07:53:58;14.30;;;8.77;;
7181;SDS011;3632;42.724;23.298;2023-04-03T07:56:26;15.00;;;10.07;;
7181;SDS011;3632;42.724;23.298;2023-04-03T07:58:52;10.20;;;7.60;;
7181;SDS011;3632;42.724;23.298;2023-04-03T08:01:19;14.87;;;7.53;;
7181;SDS011;3632;42.724;23.298;2023-04-03T08:03:47;11.13;;;7.67;;
7181;SDS011;3632;42.724;23.298;2023-04-03T08:06:13;11.50;;;7.80;;
7181;SDS011;3632;42.724;23.298;2023-04-03T08:08:42;8.23;;;6.20;;
7181;SDS011;3632;42.724;23.298;2023-04-03T08:11:09;8.73;;;6.20;;
7181;SDS011;3632;42.724;23.298;2023-04-03T08:13:37;11.10;;;6.40;;
7181;SDS011;3632;42.724;23.298;2023-04-03T08:16:07;12.80;;;5.83;;
7181;SDS011;3632;42.724;23.298;2023-04-03T08:18:35;13.10;;;6.60;;
7181;SDS011;3632;42.724;23.298;2023-04-03T08:21:04;13.93;;;7.57;;
7181;SDS011;3632;42.724;23.298;2023-04-03T08:23:32;12.83;;;6.87;;
7181;SDS011;3632;42.724;23.298;2023-04-03T08:26:06;13.10;;;7.07;;
7181;SDS011;3632;42.724;23.298;2023-04-03T08:28:34;18.93;;;12.63;;
7181;SDS011;3632;42.724;23.298;2023-04-03T08:31:03;17.30;;;10.00;;
7181;SDS011;3632;42.724;23.298;2023-04-03T08:33:32;17.93;;;9.17;;
7181;SDS011;3632;42.724;23.298;2023-04-03T08:36:00;12.20;;;7.53;;
7181;SDS011;3632;42.724;23.298;2023-04-03T08:38:28;24.20;;;16.23;;
7181;SDS011;3632;42.724;23.298;2023-04-03T08:41:06;24.27;;;17.33;;
7181;SDS011;3632;42.724;23.298;2023-04-03T08:43:54;19.73;;;11.20;;
7181;SDS011;3632;42.724;23.298;2023-04-03T08:46:26;10.90;;;9.33;;
7181;SDS011;3632;42.724;23.298;2023-04-03T08:49:04;15.13;;;9.53;;
7181;SDS011;3632;42.724;23.298;2023-04-03T08:51:40;17.10;;;11.43;;
7181;SDS011;3632;42.724;23.298;2023-04-03T08:54:15;27.43;;;13.57;;
7181;SDS011;3632;42.724;23.298;2023-04-03T08:56:56;21.07;;;11.10;;
7181;SDS011;3632;42.724;23.298;2023-04-03T08:59:27;13.27;;;10.43;;
7181;SDS011;3632;42.724;23.298;2023-04-03T09:01:56;16.23;;;9.97;;
7181;SDS011;3632;42.724;23.298;2023-04-03T09:04:27;15.27;;;10.10;;
7181;SDS011;3632;42.724;23.298;2023-04-03T09:06:58;20.80;;;11.57;;
7181;SDS011;3632;42.724;23.298;2023-04-03T09:09:31;18.13;;;11.37;;
7181;SDS011;3632;42.724;23.298;2023-04-03T09:12:06;16.03;;;9.43;;
7181;SDS011;3632;42.724;23.298;2023-04-03T09:14:42;13.73;;;9.30;;
7181;SDS011;3632;42.724;23.298;2023-04-03T09:17:21;14.87;;;9.10;;
7181;SDS011;3632;42.724;23.298;2023-04-03T09:19:58;13.37;;;8.43;;
7181;SDS011;3632;42.724;23.298;2023-04-03T09:22:32;12.87;;;7.80;;
7181;SDS011;3632;42.724;23.298;2023-04-03T09:25:05;13.67;;;8.70;;
7181;SDS011;3632;42.724;23.298;2023-04-03T09:27:42;15.30;;;9.93;;
7181;SDS011;3632;42.724;23.298;2023-04-03T09:30:12;26.83;;;16.23;;
7181;SDS011;3632;42.724;23.298;2023-04-03T09:32:41;19.03;;;11.30;;
7181;SDS011;3632;42.724;23.298;2023-04-03T09:35:16;17.87;;;9.97;;
7181;SDS011;3632;42.724;23.298;2023-04-03T09:37:47;16.43;;;10.87;;
7181;SDS011;3632;42.724;23.298;2023-04-03T09:43:22;15.53;;;10.33;;
7181;SDS011;3632;42.724;23.298;2023-04-03T09:45:54;18.50;;;11.43;;
7181;SDS011;3632;42.724;23.298;2023-04-03T09:48:23;14.73;;;11.47;;
7181;SDS011;3632;42.724;23.298;2023-04-03T09:50:55;20.87;;;12.93;;
7181;SDS011;3632;42.724;23.298;2023-04-03T09:53:31;19.33;;;12.03;;
7181;SDS011;3632;42.724;23.298;2023-04-03T09:56:02;21.73;;;14.10;;
7181;SDS011;3632;42.724;23.298;2023-04-03T09:58:34;20.83;;;12.00;;
7181;SDS011;3632;42.724;23.298;2023-04-03T10:01:06;19.50;;;12.13;;
7181;SDS011;3632;42.724;23.298;2023-04-03T10:03:46;23.23;;;15.40;;
7181;SDS011;3632;42.724;23.298;2023-04-03T10:06:34;18.80;;;12.83;;
7181;SDS011;3632;42.724;23.298;2023-04-03T10:09:02;16.60;;;11.27;;
7181;SDS011;3632;42.724;23.298;2023-04-03T10:11:31;18.90;;;11.17;;
7181;SDS011;3632;42.724;23.298;2023-04-03T10:14:00;18.17;;;10.53;;
7181;SDS011;3632;42.724;23.298;2023-04-03T10:16:32;15.50;;;10.50;;
7181;SDS011;3632;42.724;23.298;2023-04-03T10:19:19;13.33;;;9.17;;
7181;SDS011;3632;42.724;23.298;2023-04-03T10:21:58;15.03;;;8.53;;
7181;SDS011;3632;42.724;23.298;2023-04-03T10:24:31;15.00;;;8.10;;
7181;SDS011;3632;42.724;23.298;2023-04-03T10:27:08;17.20;;;8.70;;
7181;SDS011;3632;42.724;23.298;2023-04-03T10:29:42;11.77;;;7.00;;
7181;SDS011;3632;42.724;23.298;2023-04-03T10:35:16;13.70;;;8.27;;
7181;SDS011;3632;42.724;23.298;2023-04-03T10:37:54;10.77;;;8.27;;
7181;SDS011;3632;42.724;23.298;2023-04-03T10:40:29;12.47;;;8.00;;
7181;SDS011;3632;42.724;23.298;2023-04-03T10:43:01;14.87;;;7.93;;
7181;SDS011;3632;42.724;23.298;2023-04-03T10:45:36;10.10;;;6.70;;
7181;SDS011;3632;42.724;23.298;2023-04-03T10:48:26;12.83;;;6.97;;
7181;SDS011;3632;42.724;23.298;2023-04-03T10:51:05;12.47;;;6.90;;
7181;SDS011;3632;42.724;23.298;2023-04-03T10:53:43;15.83;;;8.67;;
7181;SDS011;3632;42.724;23.298;2023-04-03T10:56:18;11.20;;;6.27;;
7181;SDS011;3632;42.724;23.298;2023-04-03T10:58:51;11.70;;;5.87;;
7181;SDS011;3632;42.724;23.298;2023-04-03T11:01:26;8.90;;;5.17;;
7181;SDS011;3632;42.724;23.298;2023-04-03T11:03:59;6.63;;;4.47;;
7181;SDS011;3632;42.724;23.298;2023-04-03T11:06:30;5.47;;;4.63;;
7181;SDS011;3632;42.724;23.298;2023-04-03T11:09:05;7.17;;;4.97;;
7181;SDS011;3632;42.724;23.298;2023-04-03T11:11:39;13.03;;;10.17;;
7181;SDS011;3632;42.724;23.298;2023-04-03T11:14:09;12.80;;;6.87;;
7181;SDS011;3632;42.724;23.298;2023-04-03T11:16:43;10.20;;;5.80;;
7181;SDS011;3632;42.724;23.298;2023-04-03T11:19:33;8.10;;;5.40;;
7181;SDS011;3632;42.724;23.298;2023-04-03T11:22:08;12.37;;;6.83;;
7181;SDS011;3632;42.724;23.298;2023-04-03T11:24:39;12.77;;;6.10;;
7181;SDS011;3632;42.724;23.298;2023-04-03T11:27:10;10.77;;;5.53;;
7181;SDS011;3632;42.724;23.298;2023-04-03T11:29:43;7.97;;;5.00;;
7181;SDS011;3632;42.724;23.298;2023-04-03T11:32:21;9.13;;;5.10;;
7181;SDS011;3632;42.724;23.298;2023-04-03T11:35:02;6.77;;;4.27;;
7181;SDS011;3632;42.724;23.298;2023-04-03T11:37:34;7.87;;;4.73;;
7181;SDS011;3632;42.724;23.298;2023-04-03T11:40:03;7.57;;;4.47;;
7181;SDS011;3632;42.724;23.298;2023-04-03T11:42:34;5.90;;;4.13;;
7181;SDS011;3632;42.724;23.298;2023-04-03T11:45:16;7.27;;;3.87;;
7181;SDS011;3632;42.724;23.298;2023-04-03T11:47:58;6.80;;;3.87;;
7181;SDS011;3632;42.724;23.298;2023-04-03T11:50:40;5.30;;;3.60;;
7181;SDS011;3632;42.724;23.298;2023-04-03T11:56:00;5.27;;;4.23;;
7181;SDS011;3632;42.724;23.298;2023-04-03T12:01:45;5.77;;;5.17;;
7181;SDS011;3632;42.724;23.298;2023-04-03T12:04:15;6.73;;;5.20;;
7181;SDS011;3632;42.724;23.298;2023-04-03T12:06:52;6.87;;;4.90;;
7181;SDS011;3632;42.724;23.298;2023-04-03T12:12:31;8.83;;;5.97;;
7181;SDS011;3632;42.724;23.298;2023-04-03T12:15:19;6.27;;;5.27;;
7181;SDS011;3632;42.724;23.298;2023-04-03T12:17:49;8.93;;;5.40;;
7181;SDS011;3632;42.724;23.298;2023-04-03T12:23:29;6.60;;;5.53;;
7181;SDS011;3632;42.724;23.298;2023-04-03T12:26:01;7.90;;;6.70;;
7181;SDS011;3632;42.724;23.298;2023-04-03T12:28:44;7.40;;;5.20;;
7181;SDS011;3632;42.724;23.298;2023-04-03T12:31:13;6.83;;;5.13;;
7181;SDS011;3632;42.724;23.298;2023-04-03T12:33:55;5.73;;;4.90;;
7181;SDS011;3632;42.724;23.298;2023-04-03T12:36:36;4.60;;;3.97;;
7181;SDS011;3632;42.724;23.298;2023-04-03T12:39:14;5.33;;;4.40;;
7181;SDS011;3632;42.724;23.298;2023-04-03T12:41:53;5.07;;;3.93;;
7181;SDS011;3632;42.724;23.298;2023-04-03T12:44:38;6.87;;;4.50;;
7181;SDS011;3632;42.724;23.298;2023-04-03T12:47:26;5.67;;;5.07;;
7181;SDS011;3632;42.724;23.298;2023-04-03T12:49:58;6.40;;;4.30;;
7181;SDS011;3632;42.724;23.298;2023-04-03T12:52:35;9.20;;;5.00;;
7181;SDS011;3632;42.724;23.298;2023-04-03T12:55:08;6.57;;;4.63;;
7181;SDS011;3632;42.724;23.298;2023-04-03T12:57:43;7.93;;;4.27;;
7181;SDS011;3632;42.724;23.298;2023-04-03T13:00:20;6.23;;;4.40;;
7181;SDS011;3632;42.724;23.298;2023-04-03T13:02:58;5.63;;;4.23;;
7181;SDS011;3632;42.724;23.298;2023-04-03T13:05:27;4.20;;;3.80;;
7181;SDS011;3632;42.724;23.298;2023-04-03T13:07:58;6.47;;;4.37;;
7181;SDS011;3632;42.724;23.298;2023-04-03T13:10:28;4.03;;;3.63;;
7181;SDS011;3632;42.724;23.298;2023-04-03T13:12:56;5.53;;;3.87;;
7181;SDS011;3632;42.724;23.298;2023-04-03T13:15:26;5.50;;;3.60;;
7181;SDS011;3632;42.724;23.298;2023-04-03T13:17:55;5.37;;;4.07;;
7181;SDS011;3632;42.724;23.298;2023-04-03T13:20:24;6.00;;;4.03;;
7181;SDS011;3632;42.724;23.298;2023-04-03T13:22:54;7.17;;;5.93;;
7181;SDS011;3632;42.724;23.298;2023-04-03T13:25:26;7.37;;;5.90;;
7181;SDS011;3632;42.724;23.298;2023-04-03T13:27:57;7.00;;;5.70;;
7181;SDS011;3632;42.724;23.298;2023-04-03T13:30:27;7.97;;;6.43;;
7181;SDS011;3632;42.724;23.298;2023-04-03T13:32:57;8.33;;;7.40;;
7181;SDS011;3632;42.724;23.298;2023-04-03T13:35:28;10.40;;;7.87;;
7181;SDS011;3632;42.724;23.298;2023-04-03T13:37:59;8.90;;;6.90;;
7181;SDS011;3632;42.724;23.298;2023-04-03T13:40:28;7.37;;;6.23;;
7181;SDS011;3632;42.724;23.298;2023-04-03T13:43:01;8.63;;;6.53;;
7181;SDS011;3632;42.724;23.298;2023-04-03T13:45:30;9.07;;;6.33;;
7181;SDS011;3632;42.724;23.298;2023-04-03T13:48:09;8.93;;;6.50;;
7181;SDS011;3632;42.724;23.298;2023-04-03T13:50:59;9.40;;;6.30;;
7181;SDS011;3632;42.724;23.298;2023-04-03T13:53:40;7.37;;;6.20;;
7181;SDS011;3632;42.724;23.298;2023-04-03T13:56:16;10.67;;;5.93;;
7181;SDS011;3632;42.724;23.298;2023-04-03T13:58:54;9.10;;;6.67;;
7181;SDS011;3632;42.724;23.298;2023-04-03T14:01:23;10.10;;;6.77;;
7181;SDS011;3632;42.724;23.298;2023-04-03T14:03:53;11.90;;;7.00;;
7181;SDS011;3632;42.724;23.298;2023-04-03T14:06:21;12.30;;;7.77;;
7181;SDS011;3632;42.724;23.298;2023-04-03T14:08:53;16.17;;;13.50;;
7181;SDS011;3632;42.724;23.298;2023-04-03T14:11:20;9.70;;;8.27;;
7181;SDS011;3632;42.724;23.298;2023-04-03T14:13:50;9.97;;;6.50;;
7181;SDS011;3632;42.724;23.298;2023-04-03T14:16:19;7.47;;;5.33;;
7181;SDS011;3632;42.724;23.298;2023-04-03T14:18:47;7.97;;;5.40;;
7181;SDS011;3632;42.724;23.298;2023-04-03T14:21:16;9.80;;;5.13;;
7181;SDS011;3632;42.724;23.298;2023-04-03T14:23:45;7.40;;;5.10;;
7181;SDS011;3632;42.724;23.298;2023-04-03T14:26:14;6.63;;;4.37;;
7181;SDS011;3632;42.724;23.298;2023-04-03T14:28:44;6.43;;;4.03;;
7181;SDS011;3632;42.724;23.298;2023-04-03T14:31:11;6.57;;;4.93;;
7181;SDS011;3632;42.724;23.298;2023-04-03T14:33:39;4.53;;;4.10;;
7181;SDS011;3632;42.724;23.298;2023-04-03T14:36:10;4.87;;;4.30;;
7181;SDS011;3632;42.724;23.298;2023-04-03T14:38:39;5.83;;;4.00;;
7181;SDS011;3632;42.724;23.298;2023-04-03T14:41:07;6.43;;;4.47;;
7181;SDS011;3632;42.724;23.298;2023-04-03T14:43:35;5.43;;;4.30;;
7181;SDS011;3632;42.724;23.298;2023-04-03T14:46:04;5.20;;;4.30;;
7181;SDS011;3632;42.724;23.298;2023-04-03T14:48:31;4.53;;;3.87;;
7181;SDS011;3632;42.724;23.298;2023-04-03T14:50:58;5.27;;;3.97;;
7181;SDS011;3632;42.724;23.298;2023-04-03T14:53:25;4.97;;;4.47;;
7181;SDS011;3632;42.724;23.298;2023-04-03T14:55:54;6.80;;;4.17;;
7181;SDS011;3632;42.724;23.298;2023-04-03T14:58:21;4.30;;;3.73;;
7181;SDS011;3632;42.724;23.298;2023-04-03T15:00:49;5.43;;;4.43;;
7181;SDS011;3632;42.724;23.298;2023-04-03T15:03:17;5.53;;;4.73;;
7181;SDS011;3632;42.724;23.298;2023-04-03T15:05:46;8.50;;;5.60;;
7181;SDS011;3632;42.724;23.298;2023-04-03T15:08:18;6.00;;;5.40;;
7181;SDS011;3632;42.724;23.298;2023-04-03T15:10:48;5.83;;;5.10;;
7181;SDS011;3632;42.724;23.298;2023-04-03T15:13:18;6.93;;;6.03;;
7181;SDS011;3632;42.724;23.298;2023-04-03T15:15:45;5.50;;;4.83;;
7181;SDS011;3632;42.724;23.298;2023-04-03T15:18:18;5.70;;;5.07;;
7181;SDS011;3632;42.724;23.298;2023-04-03T15:20:48;5.80;;;5.20;;
7181;SDS011;3632;42.724;23.298;2023-04-03T15:23:15;5.70;;;5.03;;
7181;SDS011;3632;42.724;23.298;2023-04-03T15:25:43;7.07;;;5.70;;
7181;SDS011;3632;42.724;23.298;2023-04-03T15:28:13;7.20;;;5.63;;
7181;SDS011;3632;42.724;23.298;2023-04-03T15:30:45;6.73;;;5.80;;